Time;durP1;ratioP1;P1;durP2;ratioP2;P2;SDS_P1;SDS_P2;PMS_P1;PMS_P2;Temp;Humidity;BMP_temperature;BMP_pressure;BME280_temperature;BME280_humidity;BME280_pressure;Samples;Min_cycle;Max_cycle;Signal;HPM_P1;HPM_P2
2024/01/27 00:01:19;;;;;;;2.73;2.40;;;7.40;52.20;;;;;;20572;6841;307294;-80
2024/01/27 00:03:44;;;;;;;2.27;2.13;;;7.50;51.80;;;;;;20784;6841;117427;-79
2024/01/27 00:06:10;;;;;;;2.67;2.40;;;7.20;51.90;;;;;;20565;6841;309765;-79
2024/01/27 00:08:35;;;;;;;2.97;2.20;;;7.20;51.90;;;;;;20768;6841;117560;-79
2024/01/27 00:11:01;;;;;;;2.50;2.30;;;7.00;52.20;;;;;;20579;6841;279342;-79
2024/01/27 00:13:27;;;;;;;3.57;2.20;;;6.90;51.90;;;;;;20576;6841;307982;-80
2024/01/27 00:15:54;;;;;;;4.57;2.30;;;7.00;51.60;;;;;;20571;6841;310497;-80
2024/01/27 00:18:18;;;;;;;2.13;2.03;;;7.20;51.30;;;;;;20787;6841;116941;-79
2024/01/27 00:20:45;;;;;;;3.40;2.42;;;7.00;51.60;;;;;;20571;6841;339185;-79
2024/01/27 00:23:13;;;;;;;4.00;2.23;;;7.00;51.90;;;;;;20577;6841;308290;-79
2024/01/27 00:25:39;;;;;;;4.57;2.20;;;6.80;52.50;;;;;;20795;6841;116844;-79
2024/01/27 00:28:05;;;;;;;2.83;2.37;;;6.80;52.10;;;;;;20606;6841;278429;-79
2024/01/27 00:30:31;;;;;;;2.65;2.28;;;6.90;51.50;;;;;;20586;6841;277967;-79
2024/01/27 00:32:57;;;;;;;2.03;1.83;;;6.90;51.50;;;;;;20778;6841;117254;-80
2024/01/27 00:35:23;;;;;;;2.60;2.20;;;6.70;51.60;;;;;;20576;6838;309647;-79
2024/01/27 00:37:48;;;;;;;2.40;2.03;;;6.60;51.80;;;;;;20798;6840;116915;-79
2024/01/27 00:40:14;;;;;;;2.30;2.10;;;6.50;52.20;;;;;;20596;6840;277785;-79
2024/01/27 00:42:39;;;;;;;2.67;2.37;;;6.50;52.60;;;;;;20591;6840;279420;-79
2024/01/27 00:45:06;;;;;;;4.93;3.33;;;6.80;51.90;;;;;;20585;6840;308558;-79
2024/01/27 00:47:31;;;;;;;6.67;4.70;;;6.80;51.90;;;;;;20793;6840;117322;-79
2024/01/27 00:49:58;;;;;;;13.93;9.33;;;6.20;52.90;;;;;;20800;6840;117955;-79
2024/01/27 00:52:24;;;;;;;9.40;7.53;;;6.20;52.90;;;;;;20606;6840;303127;-79
2024/01/27 00:54:50;;;;;;;5.03;3.67;;;6.20;52.80;;;;;;20858;6840;116261;-79
2024/01/27 00:57:15;;;;;;;3.97;2.92;;;6.10;52.90;;;;;;20667;6841;277287;-79
2024/01/27 00:59:41;;;;;;;4.13;2.77;;;6.10;53.10;;;;;;20681;6835;305865;-79
2024/01/27 01:02:06;;;;;;;3.00;2.80;;;6.40;53.00;;;;;;20906;6835;67732;-79
2024/01/27 01:04:32;;;;;;;4.80;3.00;;;6.20;53.00;;;;;;20673;6835;335020;-79
2024/01/27 01:06:58;;;;;;;3.08;2.60;;;6.30;53.10;;;;;;20563;6835;327572;-82
2024/01/27 01:09:24;;;;;;;2.97;2.42;;;6.40;52.50;;;;;;20829;6835;117126;-80
2024/01/27 01:11:51;;;;;;;3.00;2.47;;;6.30;52.70;;;;;;20654;6835;278384;-79
2024/01/27 01:14:16;;;;;;;2.87;2.50;;;6.30;53.50;;;;;;20677;6835;294769;-79
2024/01/27 01:16:42;;;;;;;4.03;2.63;;;6.50;52.50;;;;;;20662;6835;276484;-80
2024/01/27 01:19:08;;;;;;;3.80;2.33;;;6.40;52.50;;;;;;20882;6835;118828;-80
2024/01/27 01:21:34;;;;;;;3.37;2.00;;;6.40;52.50;;;;;;20833;6835;117357;-80
2024/01/27 01:24:01;;;;;;;3.17;2.35;;;6.00;53.20;;;;;;20825;6835;116954;-81
2024/01/27 01:26:26;;;;;;;4.12;3.00;;;5.70;53.90;;;;;;20608;6835;337439;-80
2024/01/27 01:28:52;;;;;;;3.15;2.85;;;5.80;54.00;;;;;;20601;6835;314330;-80
2024/01/27 01:31:17;;;;;;;4.30;2.47;;;6.00;53.10;;;;;;20622;6835;307087;-81
2024/01/27 01:33:43;;;;;;;3.92;2.30;;;6.30;52.60;;;;;;20615;6835;308564;-80
2024/01/27 01:36:09;;;;;;;3.70;2.00;;;6.40;51.70;;;;;;20825;6835;118208;-80
2024/01/27 01:38:34;;;;;;;3.10;1.83;;;6.20;52.00;;;;;;20833;6835;117330;-80
2024/01/27 01:41:00;;;;;;;3.22;2.30;;;5.90;52.80;;;;;;20433;6835;337015;-81
2024/01/27 01:43:27;;;;;;;1.83;1.65;;;5.80;53.30;;;;;;20817;6835;118423;-80
2024/01/27 01:45:56;;;;;;;2.10;1.87;;;5.80;53.60;;;;;;20608;6835;318772;-80
2024/01/27 01:48:21;;;;;;;3.07;1.90;;;5.90;53.60;;;;;;20828;6833;117409;-80
2024/01/27 01:50:47;;;;;;;3.90;1.90;;;5.80;53.50;;;;;;20632;6834;305942;-80
2024/01/27 01:53:12;;;;;;;3.03;2.40;;;5.80;53.50;;;;;;20623;6835;308535;-78
2024/01/27 01:55:38;;;;;;;2.80;2.10;;;6.00;53.10;;;;;;20622;6835;278764;-80
2024/01/27 01:58:04;;;;;;;4.60;2.13;;;6.30;52.90;;;;;;20626;6835;336144;-79
2024/01/27 02:00:29;;;;;;;2.85;2.20;;;6.40;52.50;;;;;;20616;6835;337527;-78
2024/01/27 02:02:55;;;;;;;2.80;1.97;;;6.50;51.90;;;;;;20839;6835;68335;-82
2024/01/27 02:05:20;;;;;;;2.70;1.87;;;6.30;52.30;;;;;;20841;6835;67889;-80
2024/01/27 02:07:46;;;;;;;2.87;1.90;;;5.90;53.00;;;;;;20625;6835;307631;-80
2024/01/27 02:10:18;;;;;;;3.67;2.03;;;5.80;52.80;;;;;;20626;6835;307540;-80
2024/01/27 02:12:44;;;;;;;3.20;2.00;;;6.00;52.10;;;;;;20616;6835;307248;-81
2024/01/27 02:15:14;;;;;;;3.27;2.30;;;6.10;51.90;;;;;;20622;6835;307600;-81
2024/01/27 02:17:40;;;;;;;2.23;1.90;;;6.30;52.20;;;;;;20830;6835;67754;-80
2024/01/27 02:20:06;;;;;;;2.45;2.25;;;6.00;52.50;;;;;;20834;6835;67470;-80
2024/01/27 02:22:31;;;;;;;3.80;2.50;;;5.70;53.30;;;;;;20594;6835;336438;-79
2024/01/27 02:24:56;;;;;;;3.50;1.97;;;5.60;53.40;;;;;;20837;6835;67595;-79
2024/01/27 02:27:23;;;;;;;6.55;2.00;;;5.30;54.00;;;;;;20836;6835;68100;-79
2024/01/27 02:29:48;;;;;;;3.57;2.40;;;5.20;53.90;;;;;;20626;6835;278221;-79
2024/01/27 02:32:14;;;;;;;1.63;1.53;;;5.30;53.70;;;;;;20833;6835;67337;-79
2024/01/27 02:34:44;;;;;;;2.00;1.80;;;5.00;54.20;;;;;;20830;6835;67769;-78
2024/01/27 02:37:09;;;;;;;4.80;2.03;;;5.00;54.20;;;;;;20835;6835;71579;-80
2024/01/27 02:39:36;;;;;;;1.95;1.85;;;4.80;54.60;;;;;;20842;6835;69694;-80
2024/01/27 02:42:02;;;;;;;2.62;2.33;;;4.70;55.80;;;;;;20617;6835;338003;-80
2024/01/27 02:44:27;;;;;;;5.13;2.73;;;4.80;55.30;;;;;;20617;6835;307463;-80
2024/01/27 02:46:53;;;;;;;3.93;2.40;;;5.20;54.40;;;;;;20834;6835;70552;-79
2024/01/27 02:49:19;;;;;;;2.30;2.10;;;5.10;54.10;;;;;;20821;6835;69319;-79
2024/01/27 02:51:44;;;;;;;3.08;2.65;;;4.90;54.40;;;;;;20599;6835;307081;-80
2024/01/27 02:54:10;;;;;;;3.75;2.80;;;5.00;54.10;;;;;;20627;6835;306356;-79
2024/01/27 02:56:36;;;;;;;3.70;3.00;;;5.50;53.40;;;;;;20625;6835;308117;-79
2024/01/27 02:59:02;;;;;;;2.43;2.30;;;5.50;53.40;;;;;;20837;6833;67302;-80
2024/01/27 03:01:27;;;;;;;3.65;2.90;;;5.30;53.50;;;;;;20627;6834;277717;-80
2024/01/27 03:03:53;;;;;;;4.63;2.90;;;5.30;54.00;;;;;;20623;6835;307108;-80
2024/01/27 03:06:18;;;;;;;3.50;2.47;;;5.50;53.50;;;;;;20835;6835;67660;-79
2024/01/27 03:08:44;;;;;;;2.80;2.43;;;5.40;53.60;;;;;;20838;6835;67778;-79
2024/01/27 03:11:10;;;;;;;3.55;2.95;;;5.10;54.10;;;;;;20624;6835;296998;-79
2024/01/27 03:13:35;;;;;;;3.43;2.97;;;5.10;54.00;;;;;;20619;6835;337867;-79
2024/01/27 03:16:01;;;;;;;4.65;2.80;;;5.30;53.10;;;;;;20616;6835;336815;-80
2024/01/27 03:18:27;;;;;;;4.20;2.25;;;5.30;52.70;;;;;;20780;6835;117499;-79
2024/01/27 03:20:54;;;;;;;4.20;2.60;;;5.30;52.70;;;;;;20778;6835;117462;-79
2024/01/27 03:23:21;;;;;;;3.37;2.17;;;5.00;53.50;;;;;;20796;6835;118469;-79
2024/01/27 03:25:47;;;;;;;2.87;2.10;;;4.70;54.20;;;;;;20798;6835;116870;-79
2024/01/27 03:28:12;;;;;;;3.93;3.00;;;4.50;54.90;;;;;;20579;6835;296033;-79
2024/01/27 03:30:41;;;;;;;4.70;2.70;;;4.70;55.40;;;;;;20848;6597;116976;-81
2024/01/27 03:33:14;;;;;;;4.53;3.17;;;4.90;55.00;;;;;;20679;6740;279845;-80
2024/01/27 03:35:50;;;;;;;7.33;3.77;;;4.90;55.00;;;;;;20780;6725;294866;-80
2024/01/27 03:38:28;;;;;;;4.73;4.20;;;5.20;54.30;;;;;;20785;6725;306128;-80
2024/01/27 03:41:01;;;;;;;7.80;4.10;;;5.40;53.70;;;;;;20966;6725;119069;-80
2024/01/27 03:43:39;;;;;;;4.67;4.13;;;5.20;53.90;;;;;;20712;6725;279388;-80
2024/01/27 03:46:14;;;;;;;3.63;3.33;;;5.20;53.90;;;;;;21034;6710;118361;-80
2024/01/27 03:48:50;;;;;;;3.43;2.80;;;5.00;54.10;;;;;;21005;6712;116700;-80
2024/01/27 03:51:26;;;;;;;3.80;3.50;;;4.80;54.80;;;;;;20771;6725;306925;-80
2024/01/27 03:54:01;;;;;;;3.10;2.83;;;4.80;55.20;;;;;;20885;6725;116831;-81
2024/01/27 03:56:36;;;;;;;4.10;3.13;;;4.70;55.10;;;;;;20920;6740;118617;-80
2024/01/27 03:59:13;;;;;;;3.27;3.07;;;4.30;56.00;;;;;;20930;6742;117480;-78
2024/01/27 04:01:48;;;;;;;3.90;3.60;;;4.30;56.00;;;;;;20764;6725;276946;-78
2024/01/27 04:04:24;;;;;;;4.53;3.03;;;4.50;56.10;;;;;;20848;6725;117583;-78
2024/01/27 04:07:01;;;;;;;4.07;3.60;;;4.50;55.90;;;;;;20702;6740;327036;-78
2024/01/27 04:09:35;;;;;;;4.70;3.60;;;4.60;55.80;;;;;;20935;6740;116807;-77
2024/01/27 04:12:11;;;;;;;3.80;3.50;;;4.60;55.70;;;;;;20983;6726;117667;-78
2024/01/27 04:14:46;;;;;;;3.63;3.43;;;4.40;56.10;;;;;;20806;6724;117951;-81
2024/01/27 04:17:23;;;;;;;4.80;4.23;;;4.40;56.70;;;;;;20768;6724;314428;-82
2024/01/27 04:19:58;;;;;;;3.97;3.67;;;4.30;56.70;;;;;;20927;6739;119876;-79
2024/01/27 04:22:34;;;;;;;4.82;4.43;;;4.60;56.60;;;;;;20723;6740;336650;-85
2024/01/27 04:25:10;;;;;;;4.27;3.77;;;4.60;56.60;;;;;;20817;6781;116502;-80
2024/01/27 04:27:46;;;;;;;5.00;4.50;;;4.60;56.50;;;;;;20776;6725;307040;-78
2024/01/27 04:30:21;;;;;;;4.10;3.80;;;4.70;56.80;;;;;;20987;6725;119572;-77
2024/01/27 04:32:59;;;;;;;5.77;4.90;;;4.90;56.80;;;;;;20738;6725;279021;-78
2024/01/27 04:35:33;;;;;;;4.90;4.37;;;4.80;56.70;;;;;;21022;6712;119904;-79
2024/01/27 04:38:09;;;;;;;4.53;4.20;;;4.60;57.00;;;;;;20996;6722;121786;-79
2024/01/27 04:40:45;;;;;;;5.32;4.82;;;4.60;57.00;;;;;;20731;6725;335559;-79
2024/01/27 04:43:21;;;;;;;5.35;4.85;;;4.70;57.00;;;;;;20728;6725;309450;-79
2024/01/27 04:45:57;;;;;;;5.00;4.55;;;5.30;55.90;;;;;;20814;6710;277894;-79
2024/01/27 04:48:33;;;;;;;4.63;3.90;;;5.30;55.90;;;;;;20973;6725;118015;-79
2024/01/27 04:51:08;;;;;;;5.37;3.87;;;5.20;55.90;;;;;;20941;6739;117067;-78
2024/01/27 04:53:44;;;;;;;4.97;4.50;;;4.90;56.50;;;;;;20738;6712;332589;-78
2024/01/27 04:56:19;;;;;;;4.57;4.00;;;4.90;56.80;;;;;;21028;6710;120298;-79
2024/01/27 04:58:55;;;;;;;3.87;3.57;;;4.90;56.70;;;;;;21009;6710;118232;-79
2024/01/27 05:01:31;;;;;;;5.37;3.90;;;4.70;57.10;;;;;;21033;6710;116895;-81
2024/01/27 05:04:06;;;;;;;3.40;3.20;;;4.40;57.40;;;;;;20895;6710;119282;-79
2024/01/27 05:06:45;;;;;;;3.97;3.50;;;4.30;57.80;;;;;;21012;6710;126682;-79
2024/01/27 05:09:21;;;;;;;6.62;4.40;;;4.10;58.10;;;;;;20818;6710;275949;-80
2024/01/27 05:11:57;;;;;;;5.45;4.82;;;4.30;57.50;;;;;;20815;6710;304698;-80
2024/01/27 05:14:32;;;;;;;5.90;5.10;;;4.70;56.00;;;;;;20642;6710;278668;-80
2024/01/27 05:17:08;;;;;;;6.57;5.97;;;5.10;54.30;;;;;;20797;6710;304740;-79
2024/01/27 05:19:44;;;;;;;7.00;6.30;;;5.10;54.20;;;;;;20820;6710;275184;-80
2024/01/27 05:22:22;;;;;;;5.73;5.23;;;5.30;53.90;;;;;;21035;6710;116810;-80
2024/01/27 05:24:55;;;;;;;6.80;6.20;;;5.00;54.10;;;;;;20582;6709;337732;-80
2024/01/27 05:27:31;;;;;;;7.07;4.83;;;4.90;54.50;;;;;;21033;6710;118126;-80
2024/01/27 05:30:07;;;;;;;6.57;4.37;;;4.70;54.70;;;;;;21025;6710;119957;-80
2024/01/27 05:32:42;;;;;;;6.30;5.40;;;4.40;55.30;;;;;;20797;6710;275439;-80
2024/01/27 05:35:18;;;;;;;4.70;4.40;;;4.40;55.70;;;;;;21029;6710;117125;-80
2024/01/27 05:37:53;;;;;;;10.53;5.00;;;4.30;55.60;;;;;;21035;6710;116651;-80
2024/01/27 05:40:29;;;;;;;6.23;5.63;;;4.10;56.10;;;;;;20824;6710;277596;-81
2024/01/27 05:43:06;;;;;;;7.35;5.53;;;4.10;56.40;;;;;;20764;6710;309546;-80
2024/01/27 05:45:44;;;;;;;5.57;4.37;;;4.50;55.80;;;;;;21042;6710;116866;-79
2024/01/27 05:48:17;;;;;;;8.33;6.37;;;4.40;55.70;;;;;;20817;6710;317767;-80
2024/01/27 05:50:59;;;;;;;52.27;34.80;;;4.50;56.30;;;;;;20813;6710;333767;-79
2024/01/27 05:53:37;;;;;;;8.03;7.23;;;4.90;54.80;;;;;;20748;6710;307280;-78
2024/01/27 05:56:22;;;;;;;;;;;;;;;;;;;;;
2024/01/27 05:58:52;;;;;;;4.60;4.30;;;5.00;54.80;;;;;;21011;6710;146502;-79
2024/01/27 06:01:26;;;;;;;8.57;7.63;;;4.80;55.10;;;;;;20812;6710;304062;-79
2024/01/27 06:04:10;;;;;;;6.50;5.97;;;4.60;55.90;;;;;;20923;6710;117331;-79
2024/01/27 06:06:43;;;;;;;5.90;5.50;;;4.50;55.70;;;;;;20948;6725;118303;-80
2024/01/27 06:09:19;;;;;;;6.30;5.73;;;4.20;56.10;;;;;;20982;6725;116154;-81
2024/01/27 06:11:55;;;;;;;5.50;5.00;;;4.00;56.70;;;;;;20763;6728;276318;-79
2024/01/27 06:14:36;;;;;;;13.43;12.23;;;4.00;56.70;;;;;;20795;6725;117135;-79
2024/01/27 06:17:10;;;;;;;5.73;5.23;;;4.10;56.00;;;;;;20732;6725;308481;-80
2024/01/27 06:19:48;;;;;;;5.37;4.97;;;4.40;55.30;;;;;;20742;6736;305660;-80
2024/01/27 06:22:26;;;;;;;5.47;4.97;;;4.60;54.70;;;;;;20707;6745;336484;-80
2024/01/27 06:25:03;;;;;;;4.93;4.47;;;4.40;54.80;;;;;;20630;6743;117796;-81
2024/01/27 06:27:46;;;;;;;4.50;4.20;;;4.10;55.60;;;;;;20997;6723;117177;-80
2024/01/27 06:30:19;;;;;;;5.60;5.10;;;4.10;55.60;;;;;;20711;6723;288360;-81
2024/01/27 06:32:54;;;;;;;5.70;4.30;;;4.10;55.70;;;;;;20956;6725;126577;-82
2024/01/27 06:35:30;;;;;;;4.13;3.70;;;4.00;55.50;;;;;;20987;6724;116712;-81
2024/01/27 06:38:09;;;;;;;6.30;4.40;;;3.80;56.10;;;;;;20741;6735;305571;-82
2024/01/27 06:40:42;;;;;;;3.93;3.60;;;3.90;56.40;;;;;;20966;6727;119157;-78
2024/01/27 06:43:18;;;;;;;4.80;4.10;;;3.80;56.30;;;;;;20727;6725;308124;-81
2024/01/27 06:45:57;;;;;;;4.33;3.93;;;4.00;56.20;;;;;;20750;6721;307465;-81
2024/01/27 06:48:29;;;;;;;4.00;3.43;;;4.20;54.90;;;;;;20978;6725;117847;-77
2024/01/27 06:51:05;;;;;;;3.60;3.30;;;4.10;54.90;;;;;;20775;6714;305168;-75
2024/01/27 06:53:40;;;;;;;4.67;3.77;;;4.10;54.70;;;;;;20706;6722;280053;-74
2024/01/27 06:56:16;;;;;;;5.70;3.63;;;4.30;54.40;;;;;;20782;6718;305561;-74
2024/01/27 06:58:51;;;;;;;3.17;2.87;;;4.50;54.30;;;;;;20975;6718;118944;-75
2024/01/27 07:01:28;;;;;;;3.83;3.53;;;4.20;54.50;;;;;;20785;6719;303777;-75
2024/01/27 07:04:04;;;;;;;6.72;3.50;;;4.20;55.00;;;;;;20671;6718;307112;-77
2024/01/27 07:06:39;;;;;;;21.98;4.80;;;4.30;53.70;;;;;;20811;6704;278588;-76
2024/01/27 07:09:15;;;;;;;36.50;4.10;;;4.50;53.30;;;;;;21047;6704;118000;-76
2024/01/27 07:11:52;;;;;;;14.07;4.35;;;4.20;53.60;;;;;;20830;6704;333755;-76
2024/01/27 07:14:29;;;;;;;4.23;3.53;;;4.10;54.00;;;;;;20888;6698;117268;-73
2024/01/27 07:17:01;;;;;;;4.70;3.50;;;3.90;54.30;;;;;;20989;6713;118978;-79
2024/01/27 07:19:37;;;;;;;4.90;4.50;;;3.70;55.60;;;;;;20855;6698;282824;-75
2024/01/27 07:22:13;;;;;;;4.73;4.40;;;4.00;55.50;;;;;;20839;6702;276192;-76
2024/01/27 07:24:51;;;;;;;4.33;3.73;;;4.00;55.50;;;;;;20762;6726;127506;-77
2024/01/27 07:27:30;;;;;;;5.10;4.60;;;4.00;55.40;;;;;;20785;6717;306382;-75
2024/01/27 07:30:03;;;;;;;9.57;8.38;;;4.10;55.20;;;;;;20823;6706;275352;-75
2024/01/27 07:32:38;;;;;;;13.43;12.25;;;4.30;54.40;;;;;;20616;6732;302331;-75
2024/01/27 07:35:15;;;;;;;10.20;9.40;;;4.70;53.60;;;;;;20646;6755;278054;-74
2024/01/27 07:37:50;;;;;;;8.83;8.13;;;4.70;53.60;;;;;;20774;6715;279654;-80
2024/01/27 07:40:26;;;;;;;6.93;6.43;;;4.90;53.50;;;;;;20776;6715;305147;-78
2024/01/27 07:43:05;;;;;;;4.67;4.10;;;5.10;53.00;;;;;;20901;6730;117161;-78
2024/01/27 07:45:38;;;;;;;5.63;4.17;;;4.90;53.40;;;;;;20736;6730;315824;-75
2024/01/27 07:48:13;;;;;;;4.50;4.10;;;4.80;52.80;;;;;;20727;6730;292600;-74
2024/01/27 07:50:50;;;;;;;29.85;5.32;;;5.00;51.80;;;;;;20720;6724;278097;-75
2024/01/27 07:53:25;;;;;;;7.82;6.95;;;5.10;51.40;;;;;;20663;6740;283728;-74
2024/01/27 07:56:00;;;;;;;6.28;5.80;;;5.10;51.00;;;;;;20768;6723;305487;-77
2024/01/27 07:58:37;;;;;;;4.87;4.47;;;5.10;51.40;;;;;;20755;6721;305999;-76
2024/01/27 08:01:16;;;;;;;4.00;3.73;;;5.30;52.40;;;;;;20990;6723;118582;-75
2024/01/27 08:03:53;;;;;;;33.38;30.27;;;5.20;53.50;;;;;;20642;6735;280448;-77
2024/01/27 08:06:29;;;;;;;5.13;4.70;;;5.20;52.80;;;;;;20757;6730;275943;-77
2024/01/27 08:09:04;;;;;;;6.87;6.37;;;5.40;51.90;;;;;;20775;6715;304166;-75
2024/01/27 08:11:40;;;;;;;14.07;12.77;;;5.50;51.80;;;;;;21022;6715;116719;-73
2024/01/27 08:14:16;;;;;;;6.33;5.73;;;5.50;51.80;;;;;;20919;6715;118397;-73
2024/01/27 08:16:51;;;;;;;8.27;6.87;;;5.20;52.80;;;;;;21015;6713;116518;-75
2024/01/27 08:19:27;;;;;;;20.33;4.30;;;5.00;53.80;;;;;;20816;6700;334286;-75
2024/01/27 08:22:03;;;;;;;8.67;4.70;;;5.10;53.40;;;;;;20975;6717;117370;-74
2024/01/27 08:24:38;;;;;;;11.57;6.20;;;5.20;54.40;;;;;;20828;6722;117446;-76
2024/01/27 08:27:15;;;;;;;23.57;6.73;;;5.30;56.00;;;;;;20781;6715;280146;-74
2024/01/27 08:29:51;;;;;;;22.33;7.30;;;5.30;55.90;;;;;;20792;6715;304422;-78
2024/01/27 08:32:27;;;;;;;59.53;14.05;;;5.70;54.30;;;;;;20757;6730;276614;-76
2024/01/27 08:35:02;;;;;;;12.13;6.47;;;6.00;53.20;;;;;;20740;6736;117723;-76
2024/01/27 08:37:38;;;;;;;51.20;9.53;;;5.90;53.30;;;;;;20756;6730;276436;-76
2024/01/27 08:40:13;;;;;;;42.53;5.60;;;5.90;53.10;;;;;;20993;6721;118741;-77
2024/01/27 08:42:49;;;;;;;42.27;6.30;;;5.70;53.30;;;;;;20775;6715;275817;-77
2024/01/27 08:45:26;;;;;;;252.73;24.80;;;5.80;53.10;;;;;;20734;6733;280287;-79
2024/01/27 08:48:02;;;;;;;74.17;24.27;;;6.10;52.20;;;;;;20772;6722;276163;-76
2024/01/27 08:50:39;;;;;;;131.47;11.03;;;6.30;51.20;;;;;;20749;6722;278111;-78
2024/01/27 08:53:14;;;;;;;29.20;4.80;;;6.40;50.70;;;;;;20952;6722;118881;-77
2024/01/27 08:55:50;;;;;;;29.07;4.40;;;6.10;51.10;;;;;;20992;6722;116815;-77
2024/01/27 08:58:26;;;;;;;80.70;8.73;;;5.80;53.30;;;;;;20779;6721;306182;-77
2024/01/27 09:01:05;;;;;;;32.30;5.87;;;5.80;52.60;;;;;;20747;6722;306033;-79
2024/01/27 09:03:37;;;;;;;16.92;5.72;;;6.10;51.90;;;;;;20701;6722;279563;-77
2024/01/27 09:06:17;;;;;;;35.03;6.03;;;6.40;51.20;;;;;;20781;6721;276295;-77
2024/01/27 09:08:49;;;;;;;81.90;7.50;;;6.40;51.20;;;;;;20983;6715;127754;-75
2024/01/27 09:11:29;;;;;;;55.57;7.63;;;6.00;51.50;;;;;;20814;6709;308986;-78
2024/01/27 09:14:01;;;;;;;88.15;8.93;;;6.00;51.40;;;;;;20723;6715;336894;-77
2024/01/27 09:16:37;;;;;;;61.33;8.53;;;6.20;51.10;;;;;;21014;6715;120621;-77
2024/01/27 09:19:12;;;;;;;68.30;14.90;;;5.90;51.40;;;;;;20734;6730;276721;-78
2024/01/27 09:21:48;;;;;;;105.32;18.83;;;5.90;52.10;;;;;;20747;6733;305806;-77
2024/01/27 09:24:23;;;;;;;95.25;19.65;;;6.10;51.90;;;;;;20619;6736;279367;-77
2024/01/27 09:26:59;;;;;;;37.72;18.67;;;6.20;51.60;;;;;;20715;6737;336963;-76
2024/01/27 09:29:35;;;;;;;42.67;14.53;;;6.40;51.60;;;;;;20944;6733;117348;-77
2024/01/27 09:32:14;;;;;;;22.37;10.27;;;5.80;52.80;;;;;;21032;6591;117139;-79
2024/01/27 09:34:53;;;;;;;11.32;10.30;;;5.80;52.80;;;;;;20602;6737;279198;-81
2024/01/27 09:37:28;;;;;;;5.82;5.53;;;5.90;53.30;;;;;;20819;6722;291301;-80
2024/01/27 09:40:04;;;;;;;3.97;3.77;;;6.20;53.10;;;;;;21023;6718;69545;-79
2024/01/27 09:42:43;;;;;;;4.80;4.50;;;6.30;53.40;;;;;;20824;6700;307201;-80
2024/01/27 09:45:16;;;;;;;4.90;4.60;;;6.50;53.50;;;;;;20805;6715;305697;-81
2024/01/27 09:47:52;;;;;;;5.80;4.30;;;6.90;52.90;;;;;;21090;6700;118788;-82
2024/01/27 09:50:28;;;;;;;4.17;3.87;;;7.00;53.00;;;;;;21029;6715;116057;-79
2024/01/27 09:53:07;;;;;;;4.33;3.93;;;6.80;53.40;;;;;;20959;6718;118445;-80
2024/01/27 09:55:39;;;;;;;5.30;4.90;;;6.70;53.90;;;;;;20843;6707;329993;-83
2024/01/27 09:58:16;;;;;;;3.97;3.67;;;6.90;53.20;;;;;;20985;6719;117519;-80
2024/01/27 10:00:53;;;;;;;4.13;3.83;;;6.90;53.10;;;;;;20979;6717;117678;-80
2024/01/27 10:03:29;;;;;;;4.27;4.00;;;6.80;54.00;;;;;;20944;6717;117176;-77
2024/01/27 10:06:07;;;;;;;7.05;6.53;;;6.70;53.80;;;;;;20757;6730;331288;-82
2024/01/27 10:08:43;;;;;;;8.60;6.50;;;6.90;52.70;;;;;;20751;6724;305431;-80
2024/01/27 10:11:18;;;;;;;6.60;6.00;;;7.40;51.80;;;;;;21007;6723;117688;-79
2024/01/27 10:13:54;;;;;;;12.47;7.30;;;7.30;51.60;;;;;;20706;6732;279042;-79
2024/01/27 10:16:29;;;;;;;8.67;7.87;;;7.40;51.30;;;;;;20763;6732;307658;-79
2024/01/27 10:19:05;;;;;;;11.07;7.00;;;7.60;50.60;;;;;;21019;6718;118457;-79
2024/01/27 10:21:41;;;;;;;7.80;7.00;;;7.50;50.90;;;;;;20994;6718;116865;-79
2024/01/27 10:24:16;;;;;;;8.97;8.10;;;7.10;51.60;;;;;;20638;6729;308647;-80
2024/01/27 10:26:52;;;;;;;6.67;6.07;;;7.20;51.90;;;;;;20977;6718;116863;-80
2024/01/27 10:29:28;;;;;;;8.47;7.87;;;7.30;52.20;;;;;;20811;6715;279956;-81
2024/01/27 10:32:08;;;;;;;8.45;7.85;;;7.30;52.20;;;;;;20852;6700;276346;-81
2024/01/27 10:34:43;;;;;;;6.90;6.40;;;7.70;51.70;;;;;;20777;6730;144218;-81
2024/01/27 10:37:18;;;;;;;8.35;7.75;;;7.70;52.10;;;;;;20804;6715;304500;-78
2024/01/27 10:40:03;;;;;;;6.90;6.40;;;7.90;51.50;;;;;;21063;6715;120193;-80
2024/01/27 10:42:41;;;;;;;41.00;8.17;;;7.90;51.50;;;;;;21031;6715;116823;-80
2024/01/27 10:45:16;;;;;;;6.73;6.30;;;7.60;51.70;;;;;;20977;6729;116978;-80
2024/01/27 10:47:52;;;;;;;11.37;6.70;;;7.30;51.60;;;;;;20982;6730;117410;-79
2024/01/27 10:50:27;;;;;;;14.63;13.13;;;7.00;52.70;;;;;;20865;6700;334344;-80
2024/01/27 10:53:04;;;;;;;12.60;11.27;;;7.20;52.60;;;;;;20756;6715;308384;-79
2024/01/27 10:55:40;;;;;;;7.77;7.07;;;7.60;52.00;;;;;;20904;6750;117252;-82
2024/01/27 10:58:15;;;;;;;8.90;8.32;;;7.60;52.10;;;;;;20762;6730;336728;-79
2024/01/27 11:00:51;;;;;;;7.10;6.60;;;7.80;51.80;;;;;;20932;6732;120974;-79
2024/01/27 11:03:27;;;;;;;7.07;6.57;;;7.80;51.80;;;;;;20949;6711;116751;-79
2024/01/27 11:06:03;;;;;;;7.03;6.53;;;7.50;53.10;;;;;;21061;6700;116778;-77
2024/01/27 11:08:39;;;;;;;8.20;7.60;;;7.80;52.80;;;;;;20804;6700;285829;-76
2024/01/27 11:11:15;;;;;;;6.80;6.30;;;7.70;52.70;;;;;;20942;6724;116879;-77
2024/01/27 11:13:50;;;;;;;6.63;6.13;;;7.90;52.90;;;;;;20892;6729;119781;-80
2024/01/27 11:16:28;;;;;;;7.00;6.40;;;7.80;53.20;;;;;;20865;6755;117484;-75
2024/01/27 11:19:03;;;;;;;8.00;7.40;;;7.80;53.60;;;;;;20775;6715;306049;-80
2024/01/27 11:21:40;;;;;;;6.60;6.10;;;8.00;53.30;;;;;;20965;6729;116730;-81
2024/01/27 11:24:16;;;;;;;6.50;6.10;;;8.10;53.70;;;;;;20899;6714;119222;-77
2024/01/27 11:27:05;;;;;;;6.93;6.43;;;8.10;53.60;;;;;;20992;6715;118213;-77
2024/01/27 11:29:48;;;;;;;9.10;8.40;;;8.40;53.20;;;;;;20749;6730;335554;-80
2024/01/27 11:32:24;;;;;;;7.93;7.33;;;8.30;53.10;;;;;;20963;6786;117321;-78
2024/01/27 11:35:00;;;;;;;7.80;6.50;;;8.50;53.20;;;;;;20688;6860;117826;-78
2024/01/27 11:37:37;;;;;;;6.63;6.10;;;8.50;53.50;;;;;;21011;6715;116591;-80
2024/01/27 11:40:11;;;;;;;7.10;5.97;;;8.50;53.80;;;;;;20914;6747;117198;-78
2024/01/27 11:43:00;;;;;;;7.37;5.97;;;8.40;54.00;;;;;;20738;6745;276720;-80
2024/01/27 11:45:39;;;;;;;4.80;4.40;;;8.70;52.20;;;;;;20991;6724;116314;-78
2024/01/27 11:48:14;;;;;;;7.60;4.82;;;8.80;51.70;;;;;;20683;6724;306947;-80
2024/01/27 11:50:48;;;;;;;4.70;3.47;;;9.00;49.70;;;;;;20963;6724;117133;-81
2024/01/27 11:53:25;;;;;;;7.47;3.77;;;9.10;49.90;;;;;;20722;6721;337965;-79
2024/01/27 11:56:01;;;;;;;5.57;4.22;;;9.30;48.50;;;;;;20819;6706;333889;-79
2024/01/27 11:58:36;;;;;;;5.60;3.53;;;9.50;47.00;;;;;;20943;6721;117962;-76
2024/01/27 12:01:13;;;;;;;3.83;3.50;;;9.50;47.60;;;;;;21009;6709;116833;-80
2024/01/27 12:03:48;;;;;;;6.43;4.13;;;9.30;48.40;;;;;;20748;6709;277171;-81
2024/01/27 12:06:27;;;;;;;6.20;4.00;;;9.40;47.80;;;;;;21006;6765;116591;-80
2024/01/27 12:09:11;;;;;;;6.20;4.30;;;9.60;48.00;;;;;;20797;6709;276294;-82
2024/01/27 12:11:42;;;;;;;6.67;4.30;;;9.90;47.20;;;;;;20807;6709;305358;-77
2024/01/27 12:14:20;;;;;;;6.78;4.55;;;9.90;46.80;;;;;;20720;6709;336306;-79
2024/01/27 12:16:55;;;;;;;6.67;4.93;;;10.10;45.60;;;;;;20812;6709;287218;-77
2024/01/27 12:19:31;;;;;;;7.15;5.03;;;10.20;45.60;;;;;;20828;6709;304185;-78
2024/01/27 12:22:06;;;;;;;5.10;3.97;;;10.40;45.30;;;;;;21035;6709;115712;-77
2024/01/27 12:24:42;;;;;;;7.67;4.07;;;10.20;46.20;;;;;;20843;6765;118319;-78
2024/01/27 12:27:17;;;;;;;4.80;3.90;;;9.90;48.00;;;;;;20980;6726;117385;-76
2024/01/27 12:29:55;;;;;;;6.87;4.28;;;9.70;48.60;;;;;;20743;6735;335426;-78
2024/01/27 12:32:31;;;;;;;7.07;5.00;;;9.70;47.20;;;;;;20965;6735;118501;-82
2024/01/27 12:35:07;;;;;;;7.32;5.18;;;9.70;47.80;;;;;;20530;6796;319449;-78
2024/01/27 12:37:42;;;;;;;8.13;4.25;;;9.80;47.10;;;;;;20758;6728;336920;-78
2024/01/27 12:40:18;;;;;;;5.57;4.30;;;10.00;45.30;;;;;;20812;6713;276158;-77
2024/01/27 12:42:55;;;;;;;4.93;4.00;;;10.30;45.40;;;;;;20682;6744;304841;-79
2024/01/27 12:45:31;;;;;;;5.70;3.03;;;10.40;44.80;;;;;;20972;6729;117212;-79
2024/01/27 12:48:08;;;;;;;5.07;3.80;;;10.40;44.80;;;;;;20993;6724;116929;-80
2024/01/27 12:50:43;;;;;;;5.10;3.13;;;10.10;45.50;;;;;;20954;6732;117819;-79
2024/01/27 12:53:19;;;;;;;5.90;3.72;;;9.90;47.10;;;;;;20680;6745;336790;-79
2024/01/27 12:55:58;;;;;;;4.27;3.30;;;9.90;45.00;;;;;;20951;6732;117067;-79
2024/01/27 12:58:30;;;;;;;4.30;3.67;;;9.90;45.90;;;;;;20738;6733;286866;-79
2024/01/27 13:01:06;;;;;;;6.67;3.70;;;10.00;44.40;;;;;;20942;6733;119413;-78
2024/01/27 13:03:42;;;;;;;7.25;6.47;;;10.10;44.80;;;;;;20697;6730;307769;-78
2024/01/27 13:06:18;;;;;;;6.40;5.80;;;10.10;44.80;;;;;;20773;6724;276304;-78
2024/01/27 13:08:56;;;;;;;7.60;5.60;;;10.40;45.70;;;;;;20734;6730;278503;-79
2024/01/27 13:11:29;;;;;;;7.47;4.50;;;10.60;45.60;;;;;;21019;6718;116779;-79
2024/01/27 13:14:06;;;;;;;4.30;3.13;;;10.50;46.10;;;;;;20948;6715;117079;-79
2024/01/27 13:16:41;;;;;;;5.60;2.90;;;10.30;46.70;;;;;;21043;6704;116938;-80